sensor_id;sensor_type;location;lat;lon;timestamp;temperature;humidity
35491;DHT22;21605;52.068;20.806;2023-08-07T00:02:14;16.60;99.90
35491;DHT22;21605;52.068;20.806;2023-08-07T00:04:43;16.60;99.90
35491;DHT22;21605;52.068;20.806;2023-08-07T00:07:14;16.60;99.90
35491;DHT22;21605;52.068;20.806;2023-08-07T00:09:42;16.60;99.90
35491;DHT22;21605;52.068;20.806;2023-08-07T00:12:08;16.60;99.90
35491;DHT22;21605;52.068;20.806;2023-08-07T00:14:34;16.60;99.90
35491;DHT22;21605;52.068;20.806;2023-08-07T00:17:00;16.50;99.90
35491;DHT22;21605;52.068;20.806;2023-08-07T00:19:38;16.50;99.90
35491;DHT22;21605;52.068;20.806;2023-08-07T00:22:11;16.50;99.90
35491;DHT22;21605;52.068;20.806;2023-08-07T00:24:37;16.50;99.90
35491;DHT22;21605;52.068;20.806;2023-08-07T00:27:03;16.50;99.90
35491;DHT22;21605;52.068;20.806;2023-08-07T00:29:31;16.50;99.90
35491;DHT22;21605;52.068;20.806;2023-08-07T00:32:25;16.50;99.90
35491;DHT22;21605;52.068;20.806;2023-08-07T00:34:51;16.50;99.90
35491;DHT22;21605;52.068;20.806;2023-08-07T00:37:23;16.50;99.90
35491;DHT22;21605;52.068;20.806;2023-08-07T00:39:48;16.50;99.90
35491;DHT22;21605;52.068;20.806;2023-08-07T00:42:14;16.50;99.90
35491;DHT22;21605;52.068;20.806;2023-08-07T00:44:40;16.50;99.90
35491;DHT22;21605;52.068;20.806;2023-08-07T00:47:06;16.50;99.90
35491;DHT22;21605;52.068;20.806;2023-08-07T00:49:33;16.40;99.90
35491;DHT22;21605;52.068;20.806;2023-08-07T00:51:59;16.40;99.90
35491;DHT22;21605;52.068;20.806;2023-08-07T00:54:33;16.40;99.90
35491;DHT22;21605;52.068;20.806;2023-08-07T00:57:10;16.40;99.90
35491;DHT22;21605;52.068;20.806;2023-08-07T00:59:38;16.40;99.90
35491;DHT22;21605;52.068;20.806;2023-08-07T01:02:04;16.40;99.90
35491;DHT22;21605;52.068;20.806;2023-08-07T01:04:31;16.40;99.90
35491;DHT22;21605;52.068;20.806;2023-08-07T01:06:57;16.40;99.90
35491;DHT22;21605;52.068;20.806;2023-08-07T01:09:23;16.30;99.90
35491;DHT22;21605;52.068;20.806;2023-08-07T01:11:56;16.30;99.90
35491;DHT22;21605;52.068;20.806;2023-08-07T01:14:32;16.30;99.90
35491;DHT22;21605;52.068;20.806;2023-08-07T01:17:14;16.30;99.90
35491;DHT22;21605;52.068;20.806;2023-08-07T01:19:44;16.30;99.90
35491;DHT22;21605;52.068;20.806;2023-08-07T01:22:14;16.20;99.90
35491;DHT22;21605;52.068;20.806;2023-08-07T01:24:42;16.30;99.90
35491;DHT22;21605;52.068;20.806;2023-08-07T01:35:29;16.20;99.90
35491;DHT22;21605;52.068;20.806;2023-08-07T01:37:59;16.20;99.90
35491;DHT22;21605;52.068;20.806;2023-08-07T01:40:26;16.20;99.90
35491;DHT22;21605;52.068;20.806;2023-08-07T01:42:53;16.10;99.90
35491;DHT22;21605;52.068;20.806;2023-08-07T01:45:28;16.20;99.90
35491;DHT22;21605;52.068;20.806;2023-08-07T01:47:54;16.10;99.90
35491;DHT22;21605;52.068;20.806;2023-08-07T01:50:21;16.10;99.90
35491;DHT22;21605;52.068;20.806;2023-08-07T01:52:47;16.10;99.90
35491;DHT22;21605;52.068;20.806;2023-08-07T01:55:15;16.10;99.90
35491;DHT22;21605;52.068;20.806;2023-08-07T01:57:41;16.10;99.90
35491;DHT22;21605;52.068;20.806;2023-08-07T02:00:08;16.10;99.90
35491;DHT22;21605;52.068;20.806;2023-08-07T02:02:35;16.10;99.90
35491;DHT22;21605;52.068;20.806;2023-08-07T02:05:01;16.00;99.90
35491;DHT22;21605;52.068;20.806;2023-08-07T02:07:27;16.00;99.90
35491;DHT22;21605;52.068;20.806;2023-08-07T02:09:52;16.00;99.90
35491;DHT22;21605;52.068;20.806;2023-08-07T02:12:18;16.00;99.90
35491;DHT22;21605;52.068;20.806;2023-08-07T02:14:44;16.00;99.90
35491;DHT22;21605;52.068;20.806;2023-08-07T02:17:13;16.00;99.90
35491;DHT22;21605;52.068;20.806;2023-08-07T02:19:39;16.00;99.90
35491;DHT22;21605;52.068;20.806;2023-08-07T02:22:05;16.00;99.90
35491;DHT22;21605;52.068;20.806;2023-08-07T02:24:53;16.00;99.90
35491;DHT22;21605;52.068;20.806;2023-08-07T02:27:19;16.00;99.90
35491;DHT22;21605;52.068;20.806;2023-08-07T02:29:45;15.90;99.90
35491;DHT22;21605;52.068;20.806;2023-08-07T02:32:11;16.00;99.90
35491;DHT22;21605;52.068;20.806;2023-08-07T02:34:37;16.00;99.90
35491;DHT22;21605;52.068;20.806;2023-08-07T02:37:05;16.00;99.90
35491;DHT22;21605;52.068;20.806;2023-08-07T02:39:54;16.00;99.90
35491;DHT22;21605;52.068;20.806;2023-08-07T02:42:54;15.90;99.90
35491;DHT22;21605;52.068;20.806;2023-08-07T02:45:20;15.90;99.90
35491;DHT22;21605;52.068;20.806;2023-08-07T02:47:46;15.90;99.90
35491;DHT22;21605;52.068;20.806;2023-08-07T02:50:12;15.90;99.90
35491;DHT22;21605;52.068;20.806;2023-08-07T02:52:38;15.90;99.90
35491;DHT22;21605;52.068;20.806;2023-08-07T02:55:04;15.90;99.90
35491;DHT22;21605;52.068;20.806;2023-08-07T02:57:30;15.90;99.90
35491;DHT22;21605;52.068;20.806;2023-08-07T02:59:56;15.90;99.90
35491;DHT22;21605;52.068;20.806;2023-08-07T03:02:22;15.90;99.90
35491;DHT22;21605;52.068;20.806;2023-08-07T03:04:48;15.90;99.90
35491;DHT22;21605;52.068;20.806;2023-08-07T03:07:14;15.80;99.90
35491;DHT22;21605;52.068;20.806;2023-08-07T03:09:42;15.90;99.90
35491;DHT22;21605;52.068;20.806;2023-08-07T03:12:13;15.90;99.90
35491;DHT22;21605;52.068;20.806;2023-08-07T03:14:39;15.90;99.90
35491;DHT22;21605;52.068;20.806;2023-08-07T03:17:05;15.90;99.90
35491;DHT22;21605;52.068;20.806;2023-08-07T03:19:31;15.80;99.90
35491;DHT22;21605;52.068;20.806;2023-08-07T03:21:57;15.80;99.90
35491;DHT22;21605;52.068;20.806;2023-08-07T03:24:23;15.90;99.90
35491;DHT22;21605;52.068;20.806;2023-08-07T03:26:48;15.80;99.90
35491;DHT22;21605;52.068;20.806;2023-08-07T03:29:14;15.80;99.90
35491;DHT22;21605;52.068;20.806;2023-08-07T03:31:40;15.80;99.90
35491;DHT22;21605;52.068;20.806;2023-08-07T03:34:06;15.90;99.90
35491;DHT22;21605;52.068;20.806;2023-08-07T03:36:32;15.80;99.90
35491;DHT22;21605;52.068;20.806;2023-08-07T03:38:58;15.80;99.90
35491;DHT22;21605;52.068;20.806;2023-08-07T03:41:24;15.80;99.90
35491;DHT22;21605;52.068;20.806;2023-08-07T03:43:50;15.80;99.90
35491;DHT22;21605;52.068;20.806;2023-08-07T03:46:16;15.90;99.90
35491;DHT22;21605;52.068;20.806;2023-08-07T03:48:42;15.90;99.90
35491;DHT22;21605;52.068;20.806;2023-08-07T03:51:11;15.90;99.90
35491;DHT22;21605;52.068;20.806;2023-08-07T03:53:37;15.90;99.90
35491;DHT22;21605;52.068;20.806;2023-08-07T03:56:03;15.90;99.90
35491;DHT22;21605;52.068;20.806;2023-08-07T03:58:30;15.90;99.90
35491;DHT22;21605;52.068;20.806;2023-08-07T04:00:56;15.90;99.90
35491;DHT22;21605;52.068;20.806;2023-08-07T04:03:22;15.90;99.90
35491;DHT22;21605;52.068;20.806;2023-08-07T04:05:52;15.90;99.90
35491;DHT22;21605;52.068;20.806;2023-08-07T04:08:21;15.90;99.90
35491;DHT22;21605;52.068;20.806;2023-08-07T04:11:06;15.90;99.90
35491;DHT22;21605;52.068;20.806;2023-08-07T04:13:32;15.90;99.90
35491;DHT22;21605;52.068;20.806;2023-08-07T04:15:59;15.90;99.90
35491;DHT22;21605;52.068;20.806;2023-08-07T04:18:26;15.90;99.90
35491;DHT22;21605;52.068;20.806;2023-08-07T04:20:56;15.90;99.90
35491;DHT22;21605;52.068;20.806;2023-08-07T04:23:23;16.00;99.90
35491;DHT22;21605;52.068;20.806;2023-08-07T04:25:50;16.00;99.90
35491;DHT22;21605;52.068;20.806;2023-08-07T04:28:16;16.00;99.90
35491;DHT22;21605;52.068;20.806;2023-08-07T04:30:44;15.90;99.90
35491;DHT22;21605;52.068;20.806;2023-08-07T04:33:10;16.00;99.90
35491;DHT22;21605;52.068;20.806;2023-08-07T04:35:36;16.00;99.90
35491;DHT22;21605;52.068;20.806;2023-08-07T04:38:02;16.00;99.90
35491;DHT22;21605;52.068;20.806;2023-08-07T04:40:29;16.00;99.90
35491;DHT22;21605;52.068;20.806;2023-08-07T04:42:56;16.00;99.90
35491;DHT22;21605;52.068;20.806;2023-08-07T04:45:22;16.00;99.90
35491;DHT22;21605;52.068;20.806;2023-08-07T04:47:48;16.00;99.90
35491;DHT22;21605;52.068;20.806;2023-08-07T04:50:14;16.00;99.90
35491;DHT22;21605;52.068;20.806;2023-08-07T04:52:40;16.00;99.90
35491;DHT22;21605;52.068;20.806;2023-08-07T04:55:06;16.00;99.90
35491;DHT22;21605;52.068;20.806;2023-08-07T04:57:32;16.10;99.90
35491;DHT22;21605;52.068;20.806;2023-08-07T04:59:58;16.00;99.90
35491;DHT22;21605;52.068;20.806;2023-08-07T05:02:24;16.00;99.90
35491;DHT22;21605;52.068;20.806;2023-08-07T05:04:50;16.10;99.90
35491;DHT22;21605;52.068;20.806;2023-08-07T05:07:15;16.10;99.90
35491;DHT22;21605;52.068;20.806;2023-08-07T05:09:42;16.10;99.90
35491;DHT22;21605;52.068;20.806;2023-08-07T05:12:08;16.10;99.90
35491;DHT22;21605;52.068;20.806;2023-08-07T05:14:34;16.10;99.90
35491;DHT22;21605;52.068;20.806;2023-08-07T05:17:00;16.10;99.90
35491;DHT22;21605;52.068;20.806;2023-08-07T05:19:26;16.10;99.90
35491;DHT22;21605;52.068;20.806;2023-08-07T05:21:52;16.10;99.90
35491;DHT22;21605;52.068;20.806;2023-08-07T05:24:18;16.20;99.90
35491;DHT22;21605;52.068;20.806;2023-08-07T05:26:44;16.20;99.90
35491;DHT22;21605;52.068;20.806;2023-08-07T05:29:10;16.20;99.90
35491;DHT22;21605;52.068;20.806;2023-08-07T05:31:36;16.20;99.90
35491;DHT22;21605;52.068;20.806;2023-08-07T05:34:02;16.20;99.90
35491;DHT22;21605;52.068;20.806;2023-08-07T06:08:00;16.50;99.90
35491;DHT22;21605;52.068;20.806;2023-08-07T07:27:20;17.10;99.90
35491;DHT22;21605;52.068;20.806;2023-08-07T07:53:24;17.50;99.60
35491;DHT22;21605;52.068;20.806;2023-08-07T13:41:26;21.80;74.00
35491;DHT22;21605;52.068;20.806;2023-08-07T15:29:46;21.20;76.40
35491;DHT22;21605;52.068;20.806;2023-08-07T15:32:14;22.50;76.10
35491;DHT22;21605;52.068;20.806;2023-08-07T15:45:27;21.30;75.80
35491;DHT22;21605;52.068;20.806;2023-08-07T15:55:18;21.10;72.80
35491;DHT22;21605;52.068;20.806;2023-08-07T15:57:46;20.90;73.20
35491;DHT22;21605;52.068;20.806;2023-08-07T16:00:16;20.90;74.50
35491;DHT22;21605;52.068;20.806;2023-08-07T16:02:44;20.80;73.50
35491;DHT22;21605;52.068;20.806;2023-08-07T16:05:42;20.70;73.80
35491;DHT22;21605;52.068;20.806;2023-08-07T16:15:21;20.70;74.70
35491;DHT22;21605;52.068;20.806;2023-08-07T16:17:47;20.70;74.80
35491;DHT22;21605;52.068;20.806;2023-08-07T16:23:31;20.60;75.90
35491;DHT22;21605;52.068;20.806;2023-08-07T16:30:06;20.60;76.10
35491;DHT22;21605;52.068;20.806;2023-08-07T17:34:13;20.10;76.60
35491;DHT22;21605;52.068;20.806;2023-08-07T17:43:38;19.90;76.70
35491;DHT22;21605;52.068;20.806;2023-08-07T17:52:53;19.70;77.20
35491;DHT22;21605;52.068;20.806;2023-08-07T18:11:59;19.40;78.60
35491;DHT22;21605;52.068;20.806;2023-08-07T18:14:53;19.40;78.90
35491;DHT22;21605;52.068;20.806;2023-08-07T18:17:24;19.40;78.60
35491;DHT22;21605;52.068;20.806;2023-08-07T18:19:56;19.30;79.50
35491;DHT22;21605;52.068;20.806;2023-08-07T18:22:49;19.30;80.40
35491;DHT22;21605;52.068;20.806;2023-08-07T18:26:04;19.30;79.90
35491;DHT22;21605;52.068;20.806;2023-08-07T18:32:10;19.10;80.90
35491;DHT22;21605;52.068;20.806;2023-08-07T18:34:41;19.10;80.70
35491;DHT22;21605;52.068;20.806;2023-08-07T18:37:09;19.00;81.60
35491;DHT22;21605;52.068;20.806;2023-08-07T18:39:50;19.00;82.40
35491;DHT22;21605;52.068;20.806;2023-08-07T18:42:34;19.00;80.80
35491;DHT22;21605;52.068;20.806;2023-08-07T18:48:34;18.90;81.10
35491;DHT22;21605;52.068;20.806;2023-08-07T19:04:04;18.50;82.30
35491;DHT22;21605;52.068;20.806;2023-08-07T19:07:03;18.50;83.20
35491;DHT22;21605;52.068;20.806;2023-08-07T19:09:56;18.40;82.80
35491;DHT22;21605;52.068;20.806;2023-08-07T19:12:47;18.40;83.00
35491;DHT22;21605;52.068;20.806;2023-08-07T19:15:18;20.50;84.60
35491;DHT22;21605;52.068;20.806;2023-08-07T19:17:44;18.30;83.10
35491;DHT22;21605;52.068;20.806;2023-08-07T19:28:02;18.00;83.30
35491;DHT22;21605;52.068;20.806;2023-08-07T19:31:08;18.00;84.00
35491;DHT22;21605;52.068;20.806;2023-08-07T19:33:40;17.90;83.40
35491;DHT22;21605;52.068;20.806;2023-08-07T19:36:08;17.90;84.30
35491;DHT22;21605;52.068;20.806;2023-08-07T19:38:34;17.90;84.60
35491;DHT22;21605;52.068;20.806;2023-08-07T19:41:11;17.80;85.00
35491;DHT22;21605;52.068;20.806;2023-08-07T19:47:07;17.80;84.90
35491;DHT22;21605;52.068;20.806;2023-08-07T19:53:05;17.70;85.10
35491;DHT22;21605;52.068;20.806;2023-08-07T19:55:31;17.60;86.20
35491;DHT22;21605;52.068;20.806;2023-08-07T19:57:57;17.60;86.00
35491;DHT22;21605;52.068;20.806;2023-08-07T20:00:23;17.60;86.20
35491;DHT22;21605;52.068;20.806;2023-08-07T20:02:50;17.50;86.70
35491;DHT22;21605;52.068;20.806;2023-08-07T20:05:16;17.50;86.60
35491;DHT22;21605;52.068;20.806;2023-08-07T20:07:42;17.50;87.00
35491;DHT22;21605;52.068;20.806;2023-08-07T20:10:08;17.40;87.10
35491;DHT22;21605;52.068;20.806;2023-08-07T20:12:36;17.40;87.20
35491;DHT22;21605;52.068;20.806;2023-08-07T20:15:03;17.40;87.00
35491;DHT22;21605;52.068;20.806;2023-08-07T20:17:29;17.30;87.60
35491;DHT22;21605;52.068;20.806;2023-08-07T20:19:55;17.30;86.50
35491;DHT22;21605;52.068;20.806;2023-08-07T20:25:50;17.30;87.30
35491;DHT22;21605;52.068;20.806;2023-08-07T20:28:26;17.30;88.10
35491;DHT22;21605;52.068;20.806;2023-08-07T20:30:55;17.20;89.00
35491;DHT22;21605;52.068;20.806;2023-08-07T20:33:37;17.20;89.50
35491;DHT22;21605;52.068;20.806;2023-08-07T20:36:06;17.10;90.10
35491;DHT22;21605;52.068;20.806;2023-08-07T20:38:40;17.10;89.80
35491;DHT22;21605;52.068;20.806;2023-08-07T20:47:24;17.10;90.10
35491;DHT22;21605;52.068;20.806;2023-08-07T20:49:57;17.10;90.20
35491;DHT22;21605;52.068;20.806;2023-08-07T21:02:59;17.00;91.20
35491;DHT22;21605;52.068;20.806;2023-08-07T21:05:25;17.00;91.20
35491;DHT22;21605;52.068;20.806;2023-08-07T21:08:03;17.00;91.30
35491;DHT22;21605;52.068;20.806;2023-08-07T21:10:34;17.00;91.90
35491;DHT22;21605;52.068;20.806;2023-08-07T21:29:53;17.00;91.70
35491;DHT22;21605;52.068;20.806;2023-08-07T21:33:14;17.00;91.90
35491;DHT22;21605;52.068;20.806;2023-08-07T23:54:02;16.60;96.20
35491;DHT22;21605;52.068;20.806;2023-08-07T23:57:07;16.50;96.30
